createdAt,value
2023-03-03T00:01:28.834Z,0.95
2023-03-03T00:03:55.309Z,0.74
2023-03-03T00:06:22.004Z,0.72
2023-03-03T00:08:48.391Z,0.68
2023-03-03T00:11:14.802Z,0.70
2023-03-03T00:13:50.194Z,0.44
2023-03-03T00:16:25.226Z,0.47
2023-03-03T00:18:52.699Z,0.44
2023-03-03T00:21:29.160Z,0.33
2023-03-03T00:24:10.892Z,0.35
2023-03-03T00:26:43.937Z,0.32
2023-03-03T00:29:33.391Z,0.51
2023-03-03T00:32:15.593Z,0.53
2023-03-03T00:34:43.573Z,0.79
2023-03-03T00:37:35.407Z,0.92
2023-03-03T00:40:24.028Z,0.87
2023-03-03T00:42:59.443Z,0.81
2023-03-03T00:45:48.496Z,0.69
2023-03-03T00:48:31.160Z,0.64
2023-03-03T00:50:59.699Z,0.59
2023-03-03T00:53:30.547Z,0.62
2023-03-03T00:55:57.822Z,0.61
2023-03-03T00:58:25.439Z,0.66
2023-03-03T01:00:53.878Z,0.75
2023-03-03T01:03:26.381Z,0.59
2023-03-03T01:05:54.349Z,0.63
2023-03-03T01:08:22.194Z,0.64
2023-03-03T01:10:51.664Z,0.60
2023-03-03T01:13:22.120Z,0.55
2023-03-03T01:15:48.567Z,0.48
2023-03-03T01:18:15.181Z,0.53
2023-03-03T01:20:41.986Z,0.53
2023-03-03T01:23:09.150Z,0.49
2023-03-03T01:25:36.028Z,0.52
2023-03-03T01:28:02.662Z,0.46
2023-03-03T01:30:29.178Z,0.51
2023-03-03T01:32:55.713Z,0.70
2023-03-03T01:35:22.138Z,0.69
2023-03-03T01:37:48.629Z,0.78
2023-03-03T01:40:20.345Z,0.70
2023-03-03T01:42:47.940Z,0.73
2023-03-03T01:45:20.050Z,0.66
2023-03-03T01:48:11.000Z,0.65
2023-03-03T01:50:55.065Z,0.58
2023-03-03T01:53:38.623Z,0.44
2023-03-03T01:56:07.483Z,0.42
2023-03-03T01:58:59.970Z,0.37
2023-03-03T02:01:28.469Z,0.37
2023-03-03T02:03:56.220Z,0.47
2023-03-03T02:06:28.445Z,0.46
2023-03-03T02:09:01.754Z,0.33
2023-03-03T02:11:32.241Z,0.30
2023-03-03T02:13:58.854Z,0.37
2023-03-03T02:16:25.381Z,0.40
2023-03-03T02:21:35.462Z,0.35
2023-03-03T02:24:16.166Z,0.40
2023-03-03T02:26:43.033Z,0.42
2023-03-03T02:29:10.568Z,0.49
2023-03-03T02:31:40.523Z,0.41
2023-03-03T02:34:07.266Z,0.49
2023-03-03T02:36:36.608Z,0.43
2023-03-03T02:39:19.487Z,0.31
2023-03-03T02:41:53.257Z,0.46
2023-03-03T02:44:23.618Z,0.47
2023-03-03T02:46:52.370Z,0.56
2023-03-03T02:49:22.568Z,0.50
2023-03-03T02:51:49.559Z,0.50
2023-03-03T02:54:17.210Z,0.61
2023-03-03T02:56:43.635Z,0.59
2023-03-03T02:59:10.750Z,0.53
2023-03-03T03:01:42.780Z,0.54
2023-03-03T03:04:19.263Z,0.51
2023-03-03T03:06:49.230Z,0.57
2023-03-03T03:09:17.750Z,0.49
2023-03-03T03:11:45.303Z,0.63
2023-03-03T03:14:14.764Z,0.68
2023-03-03T03:16:43.098Z,0.64
2023-03-03T03:19:10.464Z,0.63
2023-03-03T03:21:38.418Z,0.60
2023-03-03T03:24:06.725Z,0.63
2023-03-03T03:26:34.672Z,0.63
2023-03-03T03:29:02.124Z,0.63
2023-03-03T03:31:28.687Z,0.63
2023-03-03T03:33:55.187Z,0.59
2023-03-03T03:36:22.983Z,0.69
2023-03-03T03:38:50.003Z,0.69
2023-03-03T03:41:16.429Z,0.78
2023-03-03T03:43:43.036Z,0.62
2023-03-03T03:46:09.764Z,0.64
2023-03-03T03:48:36.441Z,0.64
2023-03-03T03:51:04.958Z,0.64
2023-03-03T03:53:32.309Z,0.62
2023-03-03T03:55:58.953Z,0.59
2023-03-03T03:58:25.776Z,0.64
2023-03-03T04:01:03.790Z,0.64
2023-03-03T04:03:30.570Z,0.59
2023-03-03T04:05:57.077Z,0.63
2023-03-03T04:08:23.710Z,0.49
2023-03-03T04:10:50.268Z,0.50
2023-03-03T04:13:17.599Z,0.51
2023-03-03T04:15:45.155Z,0.49
2023-03-03T04:18:12.065Z,0.51
2023-03-03T04:20:40.052Z,0.58
2023-03-03T04:23:07.287Z,0.59
2023-03-03T04:25:34.058Z,0.60
2023-03-03T04:28:03.567Z,0.59
2023-03-03T04:30:32.443Z,0.61
2023-03-03T04:32:59.333Z,0.43
2023-03-03T04:35:26.945Z,0.38
2023-03-03T04:37:53.791Z,0.37
2023-03-03T04:40:20.522Z,0.44
2023-03-03T04:42:49.457Z,0.48
2023-03-03T04:45:16.049Z,0.42
2023-03-03T04:47:45.004Z,0.53
2023-03-03T04:50:12.477Z,0.54
2023-03-03T04:52:39.124Z,0.48
2023-03-03T04:55:10.293Z,0.52
2023-03-03T04:57:37.538Z,0.47
2023-03-03T05:00:04.869Z,0.45
2023-03-03T05:02:31.387Z,0.47
2023-03-03T05:04:57.907Z,0.49
2023-03-03T05:07:24.681Z,0.40
2023-03-03T05:09:51.086Z,0.28
2023-03-03T05:12:17.521Z,0.35
2023-03-03T05:14:43.909Z,0.29
2023-03-03T05:17:10.290Z,0.21
2023-03-03T05:19:36.722Z,0.09
2023-03-03T05:22:03.126Z,0.09
2023-03-03T05:24:29.608Z,0.18
2023-03-03T05:26:55.993Z,0.22
2023-03-03T05:29:22.486Z,0.25
2023-03-03T05:31:49.003Z,0.29
2023-03-03T05:34:15.540Z,0.33
2023-03-03T05:36:41.983Z,0.06
2023-03-03T05:39:08.375Z,0.07
2023-03-03T05:41:36.801Z,0.14
2023-03-03T05:44:03.591Z,0.02
2023-03-03T05:46:30.085Z,0.06
2023-03-03T05:48:56.512Z,0.20
2023-03-03T05:51:22.931Z,0.31
2023-03-03T05:53:49.378Z,0.37
2023-03-03T05:56:15.789Z,0.34
2023-03-03T05:58:42.198Z,0.38
2023-03-03T06:01:08.670Z,0.40
2023-03-03T06:03:35.141Z,0.27
2023-03-03T06:06:01.589Z,0.25
2023-03-03T06:08:28.049Z,0.18
2023-03-03T06:10:54.469Z,0.23
2023-03-03T06:13:20.913Z,0.26
2023-03-03T06:15:47.468Z,0.28
2023-03-03T06:18:13.872Z,0.38
2023-03-03T06:20:40.346Z,0.38
2023-03-03T06:23:06.832Z,0.33
2023-03-03T06:25:35.632Z,0.37
2023-03-03T06:28:03.074Z,0.42
2023-03-03T06:30:30.600Z,0.40
2023-03-03T06:32:57.067Z,0.45
2023-03-03T06:35:23.497Z,0.40
2023-03-03T06:37:50.810Z,0.51
2023-03-03T06:40:17.470Z,0.41
2023-03-03T06:42:43.877Z,0.54
2023-03-03T06:45:10.644Z,0.33
2023-03-03T06:47:37.036Z,0.37
2023-03-03T06:50:03.672Z,0.29
2023-03-03T06:52:30.062Z,0.22
2023-03-03T06:54:58.746Z,0.30
2023-03-03T06:57:34.560Z,0.22
2023-03-03T07:00:20.839Z,0.16
2023-03-03T07:02:53.590Z,0.32
2023-03-03T07:05:20.059Z,0.31
2023-03-03T07:07:46.517Z,0.45
2023-03-03T07:10:28.030Z,0.44
2023-03-03T07:12:59.418Z,0.43
2023-03-03T07:15:36.007Z,0.31
2023-03-03T07:18:03.231Z,0.26
2023-03-03T07:20:36.331Z,0.21
2023-03-03T07:23:18.954Z,0.14
2023-03-03T07:25:46.614Z,-0.09
2023-03-03T07:28:29.785Z,0.16
2023-03-03T07:30:58.220Z,0.18
2023-03-03T07:33:27.677Z,0.31
2023-03-03T07:35:56.986Z,0.22
2023-03-03T07:38:30.451Z,0.22
2023-03-03T07:41:00.702Z,0.35
2023-03-03T07:43:37.776Z,0.33
2023-03-03T07:46:10.902Z,0.41
2023-03-03T07:48:41.972Z,0.46
2023-03-03T07:51:22.362Z,0.43
2023-03-03T07:53:49.385Z,0.37
2023-03-03T07:56:25.133Z,0.38
2023-03-03T07:58:51.853Z,0.46
2023-03-03T08:01:40.873Z,0.44
2023-03-03T08:04:21.748Z,0.31
2023-03-03T08:06:56.308Z,0.42
2023-03-03T08:09:31.112Z,0.51
2023-03-03T08:12:20.257Z,0.57
2023-03-03T08:14:47.042Z,0.64
2023-03-03T08:17:26.274Z,0.59
2023-03-03T08:19:54.520Z,0.61
2023-03-03T08:22:36.045Z,0.65
2023-03-03T08:25:02.527Z,0.68
2023-03-03T08:27:28.964Z,0.70
2023-03-03T08:29:55.363Z,0.72
2023-03-03T08:32:22.077Z,0.79
2023-03-03T08:34:48.839Z,0.84
2023-03-03T08:37:15.278Z,0.76
2023-03-03T08:39:41.723Z,0.73
2023-03-03T08:42:08.223Z,0.83
2023-03-03T08:44:34.623Z,0.98
2023-03-03T08:47:01.180Z,0.81
2023-03-03T08:49:27.582Z,0.77
2023-03-03T08:51:54.600Z,0.93
2023-03-03T08:54:20.992Z,0.98
2023-03-03T08:56:47.389Z,1.01
2023-03-03T08:59:13.785Z,1.03
2023-03-03T09:01:40.240Z,1.00
2023-03-03T09:04:06.800Z,0.99
2023-03-03T09:06:33.363Z,1.02
2023-03-03T09:08:59.770Z,1.02
2023-03-03T09:11:28.176Z,1.11
2023-03-03T09:14:02.477Z,1.20
2023-03-03T09:16:35.662Z,1.24
2023-03-03T09:19:16.584Z,1.28
2023-03-03T09:21:43.173Z,1.29
2023-03-03T09:24:22.894Z,1.41
2023-03-03T09:26:49.320Z,1.38
2023-03-03T09:29:23.775Z,1.30
2023-03-03T09:31:52.663Z,1.29
2023-03-03T09:34:25.487Z,1.28
2023-03-03T09:36:55.115Z,1.25
2023-03-03T09:39:26.907Z,1.23
2023-03-03T09:42:19.522Z,1.27
2023-03-03T09:44:57.850Z,1.42
2023-03-03T09:47:43.981Z,1.37
2023-03-03T09:50:23.997Z,1.48
2023-03-03T09:53:02.346Z,1.61
2023-03-03T09:56:00.958Z,1.60
2023-03-03T09:58:52.801Z,1.66
2023-03-03T10:01:45.494Z,1.72
2023-03-03T10:04:31.220Z,1.67
2023-03-03T10:07:30.031Z,1.74
2023-03-03T10:10:22.555Z,1.78
2023-03-03T10:13:05.705Z,1.96
2023-03-03T10:15:53.487Z,1.82
2023-03-03T10:18:39.308Z,1.87
2023-03-03T10:21:10.800Z,1.97
2023-03-03T10:23:54.892Z,1.99
2023-03-03T10:26:44.197Z,1.94
2023-03-03T10:29:34.074Z,2.00
2023-03-03T10:32:19.143Z,1.98
2023-03-03T10:34:54.420Z,1.91
2023-03-03T10:37:47.637Z,2.13
2023-03-03T10:40:55.874Z,2.25
2023-03-03T10:43:36.922Z,2.35
2023-03-03T10:46:42.357Z,2.34
2023-03-03T10:49:18.811Z,2.39
2023-03-03T10:52:01.072Z,2.48
2023-03-03T10:54:52.686Z,2.49
2023-03-03T10:57:30.740Z,2.45
2023-03-03T11:00:16.082Z,2.38
2023-03-03T11:03:11.624Z,2.38
2023-03-03T11:05:55.027Z,2.60
2023-03-03T11:08:29.820Z,2.62
2023-03-03T11:11:34.449Z,2.70
2023-03-03T11:14:12.970Z,2.61
2023-03-03T11:17:05.568Z,2.55
2023-03-03T11:19:57.621Z,2.65
2023-03-03T11:22:49.604Z,2.85
2023-03-03T11:25:25.149Z,2.76
2023-03-03T11:28:06.705Z,2.81
2023-03-03T11:31:01.121Z,2.92
2023-03-03T11:33:45.600Z,2.90
2023-03-03T11:36:20.816Z,2.96
2023-03-03T11:39:10.786Z,2.99
2023-03-03T11:42:02.074Z,2.90
2023-03-03T11:44:40.660Z,3.02
2023-03-03T11:47:31.417Z,3.06
2023-03-03T11:50:14.042Z,3.05
2023-03-03T11:52:53.285Z,3.05
2023-03-03T11:55:35.996Z,3.18
2023-03-03T11:58:21.960Z,3.14
2023-03-03T12:01:03.990Z,3.31
2023-03-03T12:03:39.609Z,3.39
2023-03-03T12:06:34.123Z,3.30
2023-03-03T12:09:11.796Z,3.44
2023-03-03T12:11:50.761Z,3.57
2023-03-03T12:14:37.595Z,3.58
2023-03-03T12:17:21.561Z,3.56
2023-03-03T12:20:29.777Z,3.51
2023-03-03T12:23:07.561Z,3.59
2023-03-03T12:25:43.872Z,3.60
2023-03-03T12:28:19.513Z,3.60
2023-03-03T12:31:09.000Z,3.69
2023-03-03T12:33:54.003Z,3.65
2023-03-03T12:36:32.388Z,3.78
2023-03-03T12:39:32.443Z,3.66
2023-03-03T12:42:14.198Z,3.55
2023-03-03T12:44:59.432Z,3.55
2023-03-03T12:47:40.158Z,3.57
2023-03-03T12:50:09.324Z,3.67
2023-03-03T12:53:02.698Z,3.64
2023-03-03T12:55:55.194Z,3.72
2023-03-03T12:58:56.352Z,3.91
2023-03-03T13:01:39.901Z,3.96
2023-03-03T13:04:29.852Z,3.94
2023-03-03T13:07:18.192Z,3.92
2023-03-03T13:10:02.026Z,4.00
2023-03-03T13:12:35.260Z,3.97
2023-03-03T13:15:20.077Z,4.00
2023-03-03T13:18:10.953Z,3.78
2023-03-03T13:20:45.313Z,4.04
2023-03-03T13:23:53.264Z,4.11
2023-03-03T13:26:32.543Z,4.17
2023-03-03T13:29:20.398Z,3.97
2023-03-03T13:31:55.865Z,3.99
2023-03-03T13:34:42.751Z,3.97
2023-03-03T13:37:23.826Z,3.83
2023-03-03T13:40:05.604Z,3.80
2023-03-03T13:42:44.261Z,4.05
2023-03-03T13:45:31.231Z,4.08
2023-03-03T13:48:19.468Z,4.05
2023-03-03T13:50:53.363Z,4.17
2023-03-03T13:53:36.159Z,4.19
2023-03-03T13:56:15.238Z,4.22
2023-03-03T13:58:53.648Z,4.25
2023-03-03T14:01:38.338Z,4.22
2023-03-03T14:04:31.568Z,4.32
2023-03-03T14:07:08.054Z,4.21
2023-03-03T14:09:53.156Z,4.20
2023-03-03T14:12:31.372Z,4.38
2023-03-03T14:15:17.340Z,4.55
2023-03-03T14:18:17.131Z,4.22
2023-03-03T14:20:54.875Z,4.35
2023-03-03T14:23:30.927Z,4.38
2023-03-03T14:26:10.169Z,4.47
2023-03-03T14:28:44.082Z,4.70
2023-03-03T14:31:38.363Z,4.60
2023-03-03T14:34:22.879Z,4.84
2023-03-03T14:36:58.067Z,4.91
2023-03-03T14:39:37.184Z,4.83
2023-03-03T14:42:29.813Z,4.63
2023-03-03T14:44:59.289Z,4.67
2023-03-03T14:47:27.542Z,4.81
2023-03-03T14:49:56.592Z,4.80
2023-03-03T14:52:26.196Z,4.95
2023-03-03T14:54:56.119Z,4.97
2023-03-03T14:57:45.959Z,4.93
2023-03-03T15:00:12.570Z,4.95
2023-03-03T15:03:01.992Z,5.05
2023-03-03T15:05:31.069Z,5.14
2023-03-03T15:08:08.902Z,4.95
2023-03-03T15:10:38.514Z,5.07
2023-03-03T15:13:20.212Z,5.20
2023-03-03T15:16:00.469Z,5.22
2023-03-03T15:18:29.242Z,5.16
2023-03-03T15:21:08.061Z,5.23
2023-03-03T15:23:42.742Z,5.17
2023-03-03T15:26:50.387Z,5.25
2023-03-03T15:29:30.507Z,5.27
2023-03-03T15:32:17.812Z,5.41
2023-03-03T15:34:51.272Z,5.44
2023-03-03T15:37:47.558Z,5.49
2023-03-03T15:40:29.257Z,5.51
2023-03-03T15:43:17.552Z,5.56
2023-03-03T15:45:43.906Z,5.67
2023-03-03T15:48:46.312Z,5.65
2023-03-03T15:52:02.160Z,5.66
2023-03-03T15:54:41.219Z,5.72
2023-03-03T15:57:21.662Z,5.72
2023-03-03T16:00:02.832Z,5.71
2023-03-03T16:02:53.640Z,5.77
2023-03-03T16:05:45.845Z,5.73
2023-03-03T16:08:25.924Z,5.68
2023-03-03T16:11:09.320Z,5.65
2023-03-03T16:13:59.600Z,5.65
2023-03-03T16:16:52.086Z,5.73
2023-03-03T16:20:01.970Z,5.65
2023-03-03T16:23:10.072Z,5.63
2023-03-03T16:25:58.234Z,5.50
2023-03-03T16:28:34.780Z,5.55
2023-03-03T16:31:21.973Z,5.47
2023-03-03T16:34:06.006Z,5.49
2023-03-03T16:36:38.599Z,5.47
2023-03-03T16:39:38.801Z,5.44
2023-03-03T16:42:25.920Z,5.41
2023-03-03T16:45:18.330Z,5.47
2023-03-03T16:47:56.838Z,5.41
2023-03-03T16:51:00.874Z,5.45
2023-03-03T16:53:45.821Z,5.40
2023-03-03T16:56:18.256Z,5.39
2023-03-03T16:59:28.547Z,5.30
2023-03-03T17:02:12.674Z,5.34
2023-03-03T17:05:05.816Z,5.27
2023-03-03T17:08:00.135Z,5.22
2023-03-03T17:10:30.309Z,5.20
2023-03-03T17:13:05.119Z,5.17
2023-03-03T17:15:39.415Z,5.12
2023-03-03T17:18:25.410Z,5.04
2023-03-03T17:20:58.000Z,4.95
2023-03-03T17:23:34.921Z,4.88
2023-03-03T17:26:20.638Z,4.88
2023-03-03T17:29:07.393Z,4.81
2023-03-03T17:31:53.893Z,4.84
2023-03-03T17:34:46.633Z,4.85
2023-03-03T17:37:27.964Z,4.78
2023-03-03T17:40:05.443Z,4.74
2023-03-03T17:42:47.704Z,4.74
2023-03-03T17:45:15.886Z,4.68
2023-03-03T17:47:50.595Z,4.73
2023-03-03T17:50:41.872Z,4.67
2023-03-03T17:53:36.434Z,4.65
2023-03-03T17:56:16.129Z,4.57
2023-03-03T17:59:02.618Z,4.68
2023-03-03T18:01:57.486Z,4.63
2023-03-03T18:04:52.240Z,4.64
2023-03-03T18:07:45.848Z,4.67
2023-03-03T18:10:42.991Z,4.63
2023-03-03T18:13:30.992Z,4.62
2023-03-03T18:16:18.112Z,4.71
2023-03-03T18:19:18.153Z,4.73
2023-03-03T18:22:17.085Z,4.68
2023-03-03T18:24:49.495Z,4.73
2023-03-03T18:27:24.708Z,4.72
2023-03-03T18:30:12.844Z,4.68
2023-03-03T18:33:01.155Z,4.59
2023-03-03T18:35:33.496Z,4.59
2023-03-03T18:38:15.049Z,4.54
2023-03-03T18:40:58.232Z,4.53
2023-03-03T18:43:39.843Z,4.46
2023-03-03T18:46:29.133Z,4.60
2023-03-03T18:49:09.875Z,4.53
2023-03-03T18:51:39.348Z,4.48
2023-03-03T18:54:30.903Z,4.55
2023-03-03T18:56:57.784Z,4.64
2023-03-03T18:59:30.273Z,4.56
2023-03-03T19:02:29.918Z,4.61
2023-03-03T19:05:05.865Z,4.57
2023-03-03T19:07:49.258Z,4.60
2023-03-03T19:10:46.825Z,4.61
2023-03-03T19:13:32.073Z,4.50
2023-03-03T19:16:08.118Z,4.62
2023-03-03T19:18:43.248Z,4.63
2023-03-03T19:21:12.721Z,4.63
2023-03-03T19:24:00.874Z,4.65
2023-03-03T19:26:30.316Z,4.58
2023-03-03T19:29:05.498Z,4.64
2023-03-03T19:31:34.985Z,4.69
2023-03-03T19:34:19.160Z,4.51
2023-03-03T19:37:05.644Z,4.57
2023-03-03T19:39:50.732Z,4.61
2023-03-03T19:42:30.948Z,4.72
2023-03-03T19:45:31.962Z,4.66
2023-03-03T19:48:22.441Z,4.56
2023-03-03T19:51:25.671Z,4.56
2023-03-03T19:54:29.858Z,4.57
2023-03-03T19:57:01.833Z,4.62
2023-03-03T19:59:59.033Z,4.65
2023-03-03T20:02:55.245Z,4.59
2023-03-03T20:05:47.968Z,4.56
2023-03-03T20:08:21.198Z,4.57
2023-03-03T20:10:59.646Z,4.50
2023-03-03T20:13:30.852Z,4.59
2023-03-03T20:16:04.428Z,4.50
2023-03-03T20:19:01.515Z,4.49
2023-03-03T20:21:59.080Z,4.45
2023-03-03T20:25:03.255Z,4.46
2023-03-03T20:27:47.558Z,4.45
2023-03-03T20:30:26.264Z,4.49
2023-03-03T20:33:10.617Z,4.36
2023-03-03T20:36:05.381Z,4.32
2023-03-03T20:38:45.604Z,4.26
2023-03-03T20:41:39.424Z,4.40
2023-03-03T20:44:19.026Z,4.35
2023-03-03T20:46:57.507Z,4.27
2023-03-03T20:50:15.400Z,4.36
2023-03-03T20:53:14.018Z,4.23
2023-03-03T20:55:57.830Z,4.34
2023-03-03T20:58:36.724Z,4.21
2023-03-03T21:01:09.504Z,4.20
2023-03-03T21:03:45.190Z,4.22
2023-03-03T21:06:15.504Z,4.13
2023-03-03T21:08:53.461Z,4.24
2023-03-03T21:11:31.805Z,4.17
2023-03-03T21:13:59.439Z,4.32
2023-03-03T21:16:25.852Z,4.21
2023-03-03T21:19:00.375Z,4.28
2023-03-03T21:21:29.727Z,4.35
2023-03-03T21:23:56.729Z,4.26
2023-03-03T21:26:49.496Z,4.39
2023-03-03T21:29:27.600Z,4.38
2023-03-03T21:32:05.364Z,4.38
2023-03-03T21:34:32.903Z,4.35
2023-03-03T21:37:01.231Z,4.44
2023-03-03T21:39:36.155Z,4.26
2023-03-03T21:42:08.779Z,4.31
2023-03-03T21:44:39.626Z,4.19
2023-03-03T21:47:08.799Z,4.32
2023-03-03T21:49:35.845Z,4.31
2023-03-03T21:52:02.876Z,4.24
2023-03-03T21:54:29.385Z,4.08
2023-03-03T21:56:55.776Z,4.21
2023-03-03T21:59:22.265Z,4.23
2023-03-03T22:01:48.680Z,4.25
2023-03-03T22:04:15.533Z,4.18
2023-03-03T22:06:42.161Z,4.24
2023-03-03T22:09:08.577Z,4.17
2023-03-03T22:11:35.016Z,4.08
2023-03-03T22:14:01.711Z,4.04
2023-03-03T22:16:28.157Z,4.06
2023-03-03T22:18:54.575Z,3.99
2023-03-03T22:21:21.925Z,3.98
2023-03-03T22:23:48.336Z,3.97
2023-03-03T22:26:14.719Z,3.93
2023-03-03T22:28:43.818Z,3.82
2023-03-03T22:31:10.634Z,3.79
2023-03-03T22:33:37.042Z,3.84
2023-03-03T22:36:03.609Z,3.85
2023-03-03T22:38:30.018Z,3.85
2023-03-03T22:40:56.410Z,3.77
2023-03-03T22:43:22.821Z,3.69
2023-03-03T22:45:50.488Z,3.75
2023-03-03T22:48:17.061Z,3.65
2023-03-03T22:50:45.476Z,3.72
2023-03-03T22:53:11.900Z,3.69
2023-03-03T22:55:38.332Z,3.73
2023-03-03T22:58:05.213Z,3.72
2023-03-03T23:00:33.286Z,3.69
2023-03-03T23:02:59.814Z,3.65
2023-03-03T23:05:26.462Z,3.58
2023-03-03T23:07:52.883Z,3.41
2023-03-03T23:10:19.357Z,3.54
2023-03-03T23:12:45.794Z,3.57
2023-03-03T23:15:15.452Z,3.60
2023-03-03T23:17:43.593Z,3.45
2023-03-03T23:20:13.130Z,3.48
2023-03-03T23:22:40.246Z,3.43
2023-03-03T23:25:07.402Z,3.32
2023-03-03T23:27:34.118Z,3.27
2023-03-03T23:30:00.517Z,3.21
2023-03-03T23:32:26.988Z,3.17
2023-03-03T23:34:54.250Z,3.20
2023-03-03T23:37:21.361Z,3.06
2023-03-03T23:39:48.123Z,3.15
2023-03-03T23:42:14.586Z,2.93
2023-03-03T23:44:41.176Z,2.93
2023-03-03T23:47:08.524Z,2.95
2023-03-03T23:54:41.784Z,2.80
2023-03-03T23:57:08.752Z,2.85
2023-03-03T23:59:35.721Z,2.83
